createdAt,value
2023-04-10T00:01:36.543Z,1.57
2023-04-10T00:04:05.062Z,1.30
2023-04-10T00:06:33.184Z,1.20
2023-04-10T00:09:00.771Z,1.40
2023-04-10T00:11:28.289Z,1.17
2023-04-10T00:13:55.909Z,1.30
2023-04-10T00:16:23.493Z,1.30
2023-04-10T00:18:51.169Z,1.20
2023-04-10T00:21:18.687Z,1.20
2023-04-10T00:23:46.252Z,1.37
2023-04-10T00:26:13.607Z,1.33
2023-04-10T00:28:41.093Z,1.10
2023-04-10T00:31:11.325Z,1.30
2023-04-10T00:33:38.685Z,1.10
2023-04-10T00:36:06.348Z,1.30
2023-04-10T00:38:33.858Z,1.30
2023-04-10T00:41:01.289Z,1.07
2023-04-10T00:43:28.686Z,1.20
2023-04-10T00:45:56.200Z,1.30
2023-04-10T00:48:23.733Z,1.20
2023-04-10T00:50:51.212Z,1.10
2023-04-10T00:53:18.697Z,1.30
2023-04-10T00:55:46.409Z,1.10
2023-04-10T00:58:14.757Z,1.27
2023-04-10T01:00:42.531Z,1.50
2023-04-10T01:03:10.694Z,1.40
2023-04-10T01:06:01.368Z,1.20
2023-04-10T01:08:51.804Z,1.10
2023-04-10T01:11:31.806Z,1.30
2023-04-10T01:14:01.967Z,1.30
2023-04-10T01:16:32.546Z,1.30
2023-04-10T01:19:26.523Z,1.30
2023-04-10T01:21:56.131Z,1.37
2023-04-10T01:24:43.530Z,1.40
2023-04-10T01:27:14.133Z,1.20
2023-04-10T01:29:44.715Z,1.60
2023-04-10T01:32:13.927Z,1.30
2023-04-10T01:34:51.804Z,1.63
2023-04-10T01:37:22.132Z,1.30
2023-04-10T01:39:52.130Z,1.40
2023-04-10T01:42:20.846Z,1.30
2023-04-10T01:44:49.331Z,1.43
2023-04-10T01:47:18.362Z,1.33
2023-04-10T01:49:49.291Z,1.63
2023-04-10T01:52:17.548Z,1.50
2023-04-10T01:54:48.541Z,1.50
2023-04-10T01:57:17.016Z,2.00
2023-04-10T01:59:44.841Z,1.67
2023-04-10T02:02:12.469Z,1.93
2023-04-10T02:04:40.728Z,1.43
2023-04-10T02:07:19.980Z,1.60
2023-04-10T02:09:53.375Z,1.47
2023-04-10T02:12:27.487Z,1.63
2023-04-10T02:14:56.738Z,1.63
2023-04-10T02:17:27.908Z,1.30
2023-04-10T02:19:56.365Z,1.57
2023-04-10T02:22:25.676Z,1.23
2023-04-10T02:24:53.962Z,1.93
2023-04-10T02:27:41.581Z,1.20
2023-04-10T02:30:09.161Z,1.23
2023-04-10T02:32:37.200Z,1.30
2023-04-10T02:35:05.181Z,1.30
2023-04-10T02:37:33.426Z,1.23
2023-04-10T02:40:01.213Z,1.20
2023-04-10T02:42:28.681Z,1.33
2023-04-10T02:44:56.798Z,1.60
2023-04-10T02:47:24.325Z,1.40
2023-04-10T02:49:51.700Z,1.57
2023-04-10T02:52:19.115Z,1.33
2023-04-10T02:54:46.648Z,1.30
2023-04-10T02:57:14.031Z,1.27
2023-04-10T02:59:41.577Z,1.33
2023-04-10T03:02:09.233Z,1.53
2023-04-10T03:04:37.007Z,1.37
2023-04-10T03:07:04.607Z,1.30
2023-04-10T03:09:32.061Z,1.20
2023-04-10T03:11:59.437Z,1.50
2023-04-10T03:14:27.203Z,1.30
2023-04-10T03:16:54.700Z,1.40
2023-04-10T03:19:22.212Z,1.37
2023-04-10T03:21:49.651Z,1.40
2023-04-10T03:24:17.007Z,1.23
2023-04-10T03:26:45.089Z,1.50
2023-04-10T03:29:12.367Z,1.43
2023-04-10T03:31:39.763Z,1.63
2023-04-10T03:34:07.171Z,1.50
2023-04-10T03:36:34.618Z,1.43
2023-04-10T03:39:02.241Z,1.23
2023-04-10T03:41:29.610Z,1.50
2023-04-10T03:43:57.208Z,1.60
2023-04-10T03:46:24.770Z,1.70
2023-04-10T03:48:54.305Z,1.23
2023-04-10T03:51:23.611Z,1.13
2023-04-10T03:53:51.654Z,1.33
2023-04-10T03:56:19.211Z,1.30
2023-04-10T03:58:46.685Z,1.40
2023-04-10T04:01:14.208Z,1.30
2023-04-10T04:03:41.871Z,1.40
2023-04-10T04:06:09.409Z,1.40
2023-04-10T04:08:38.782Z,1.60
2023-04-10T04:11:06.479Z,1.10
2023-04-10T04:13:33.971Z,1.60
2023-04-10T04:16:01.324Z,1.10
2023-04-10T04:18:28.693Z,1.63
2023-04-10T04:20:56.330Z,1.13
2023-04-10T04:23:23.773Z,1.40
2023-04-10T04:25:52.921Z,1.30
2023-04-10T04:28:20.288Z,1.50
2023-04-10T04:30:47.616Z,1.60
2023-04-10T04:33:14.978Z,1.43
2023-04-10T04:35:42.461Z,1.40
2023-04-10T04:38:09.965Z,2.03
2023-04-10T04:40:37.328Z,1.83
2023-04-10T04:43:04.607Z,1.47
2023-04-10T04:45:32.049Z,1.60
2023-04-10T04:47:59.453Z,1.50
2023-04-10T04:50:26.969Z,1.50
2023-04-10T04:52:54.374Z,1.30
2023-04-10T04:55:21.972Z,1.57
2023-04-10T04:57:49.492Z,1.70
2023-04-10T05:00:16.925Z,1.40
2023-04-10T05:02:44.627Z,1.37
2023-04-10T05:05:12.159Z,1.37
2023-04-10T05:07:39.617Z,1.97
2023-04-10T05:10:07.558Z,1.70
2023-04-10T05:12:35.156Z,1.43
2023-04-10T05:15:02.862Z,1.80
2023-04-10T05:17:30.526Z,2.20
2023-04-10T05:19:58.232Z,1.90
2023-04-10T05:22:27.783Z,1.40
2023-04-10T05:24:58.050Z,1.57
2023-04-10T05:27:25.685Z,1.50
2023-04-10T05:29:53.188Z,2.20
2023-04-10T05:32:20.756Z,2.20
2023-04-10T05:34:48.368Z,2.20
2023-04-10T05:37:15.788Z,1.73
2023-04-10T05:39:43.167Z,1.50
2023-04-10T05:42:10.556Z,1.40
2023-04-10T05:44:37.924Z,1.37
2023-04-10T05:47:05.535Z,1.17
2023-04-10T05:49:32.967Z,1.20
2023-04-10T05:52:00.449Z,1.60
2023-04-10T05:54:27.992Z,1.30
2023-04-10T05:56:55.484Z,1.23
2023-04-10T05:59:22.802Z,1.33
2023-04-10T06:01:50.217Z,1.40
2023-04-10T06:04:21.833Z,1.27
2023-04-10T06:06:49.482Z,1.57
2023-04-10T06:09:16.841Z,1.40
2023-04-10T06:11:44.242Z,1.30
2023-04-10T06:14:11.645Z,1.60
2023-04-10T06:16:39.199Z,1.30
2023-04-10T06:19:06.926Z,1.70
2023-04-10T06:21:34.614Z,1.10
2023-04-10T06:24:02.610Z,1.63
2023-04-10T06:26:29.968Z,1.60
2023-04-10T06:28:57.414Z,1.73
2023-04-10T06:31:25.359Z,1.50
2023-04-10T06:33:52.730Z,1.70
2023-04-10T06:36:20.152Z,1.70
2023-04-10T06:38:47.568Z,2.30
2023-04-10T06:41:15.094Z,2.63
2023-04-10T06:43:42.455Z,2.70
2023-04-10T06:46:10.090Z,1.90
2023-04-10T06:48:37.489Z,1.93
2023-04-10T06:51:05.247Z,2.10
2023-04-10T06:53:32.771Z,1.73
2023-04-10T06:56:02.998Z,1.43
2023-04-10T06:58:32.089Z,1.37
2023-04-10T07:01:04.430Z,1.40
2023-04-10T07:03:32.869Z,1.60
2023-04-10T07:06:02.259Z,1.30
2023-04-10T07:08:29.666Z,1.23
2023-04-10T07:10:58.584Z,1.63
2023-04-10T07:13:26.449Z,1.50
2023-04-10T07:15:54.023Z,1.30
2023-04-10T07:18:21.563Z,1.50
2023-04-10T07:20:50.337Z,1.17
2023-04-10T07:23:17.778Z,1.20
2023-04-10T07:25:45.131Z,1.30
2023-04-10T07:28:15.486Z,1.33
2023-04-10T07:30:43.021Z,1.30
2023-04-10T07:33:10.679Z,1.60
2023-04-10T07:35:38.155Z,1.57
2023-04-10T07:38:06.582Z,1.60
2023-04-10T07:40:33.934Z,1.40
2023-04-10T07:43:01.493Z,1.00
2023-04-10T07:45:29.124Z,1.10
2023-04-10T07:47:56.657Z,1.17
2023-04-10T07:50:24.416Z,1.00
2023-04-10T07:52:51.872Z,1.20
2023-04-10T07:55:19.409Z,1.30
2023-04-10T07:57:47.006Z,1.10
2023-04-10T08:00:17.805Z,0.97
2023-04-10T08:02:45.324Z,1.20
2023-04-10T08:05:12.862Z,1.20
2023-04-10T08:07:40.371Z,1.20
2023-04-10T08:10:08.010Z,1.00
2023-04-10T08:12:35.452Z,0.87
2023-04-10T08:15:02.847Z,1.10
2023-04-10T08:17:30.669Z,0.80
2023-04-10T08:19:58.163Z,1.10
2023-04-10T08:22:25.640Z,1.20
2023-04-10T08:24:52.965Z,0.90
2023-04-10T08:27:20.474Z,1.10
2023-04-10T08:29:48.040Z,0.90
2023-04-10T08:32:18.661Z,0.90
2023-04-10T08:34:46.027Z,0.80
2023-04-10T08:37:15.709Z,0.83
2023-04-10T08:39:43.176Z,0.97
2023-04-10T08:42:10.489Z,1.30
2023-04-10T08:44:38.291Z,1.37
2023-04-10T08:47:06.587Z,1.27
2023-04-10T08:49:45.084Z,0.90
2023-04-10T08:52:19.173Z,1.00
2023-04-10T08:54:49.078Z,1.10
2023-04-10T08:57:20.972Z,0.80
2023-04-10T08:59:48.949Z,0.80
2023-04-10T09:02:16.778Z,0.80
2023-04-10T09:04:52.160Z,0.80
2023-04-10T09:07:19.739Z,0.90
2023-04-10T09:09:47.412Z,1.00
2023-04-10T09:12:17.222Z,0.90
2023-04-10T09:14:44.781Z,0.90
2023-04-10T09:17:23.059Z,0.70
2023-04-10T09:19:52.869Z,0.60
2023-04-10T09:22:29.623Z,0.87
2023-04-10T09:24:57.006Z,0.80
2023-04-10T09:27:31.891Z,1.00
2023-04-10T09:29:59.523Z,0.87
2023-04-10T09:32:46.801Z,0.73
2023-04-10T09:35:15.345Z,0.70
2023-04-10T09:37:47.184Z,0.70
2023-04-10T09:40:27.445Z,0.80
2023-04-10T09:42:58.471Z,0.87
2023-04-10T09:45:25.925Z,0.70
2023-04-10T09:48:08.986Z,0.70
2023-04-10T09:50:39.778Z,0.70
2023-04-10T09:53:28.045Z,0.70
2023-04-10T09:55:56.444Z,0.77
2023-04-10T09:58:25.483Z,0.60
2023-04-10T10:00:53.238Z,0.70
2023-04-10T10:03:24.663Z,0.63
2023-04-10T10:05:52.843Z,0.70
2023-04-10T10:08:20.927Z,0.53
2023-04-10T10:10:48.461Z,0.70
2023-04-10T10:13:18.380Z,0.50
2023-04-10T10:15:52.134Z,0.50
2023-04-10T10:18:25.476Z,0.70
2023-04-10T10:20:54.207Z,0.40
2023-04-10T10:23:23.545Z,0.70
2023-04-10T10:25:52.046Z,0.57
2023-04-10T10:28:19.805Z,0.50
2023-04-10T10:30:48.412Z,0.60
2023-04-10T10:33:15.932Z,0.50
2023-04-10T10:35:44.048Z,0.73
2023-04-10T10:38:11.808Z,0.70
2023-04-10T10:40:46.206Z,0.50
2023-04-10T10:43:26.272Z,0.70
2023-04-10T10:46:03.401Z,0.60
2023-04-10T10:48:31.277Z,0.50
2023-04-10T10:51:00.418Z,0.63
2023-04-10T10:53:41.131Z,0.60
2023-04-10T10:56:37.686Z,0.70
2023-04-10T10:59:05.384Z,0.50
2023-04-10T11:01:32.782Z,0.60
2023-04-10T11:04:00.459Z,0.50
2023-04-10T11:06:48.127Z,0.60
2023-04-10T11:09:35.167Z,0.50
2023-04-10T11:12:02.533Z,0.40
2023-04-10T11:14:30.545Z,0.60
2023-04-10T11:16:58.175Z,0.50
2023-04-10T11:19:26.519Z,0.60
2023-04-10T11:22:04.511Z,0.50
2023-04-10T11:24:52.371Z,0.60
2023-04-10T11:27:38.815Z,0.40
2023-04-10T11:30:27.143Z,0.60
2023-04-10T11:32:55.805Z,0.43
2023-04-10T11:35:23.491Z,0.50
2023-04-10T11:37:51.921Z,0.57
2023-04-10T11:40:22.287Z,0.50
2023-04-10T11:42:50.527Z,0.67
2023-04-10T11:45:28.322Z,0.60
2023-04-10T11:47:56.175Z,0.60
2023-04-10T11:50:23.971Z,0.50
2023-04-10T11:52:54.019Z,0.40
2023-04-10T11:55:38.411Z,0.40
2023-04-10T11:58:05.980Z,0.50
2023-04-10T12:00:33.409Z,0.47
2023-04-10T12:03:01.183Z,0.65
2023-04-10T12:05:28.726Z,0.60
2023-04-10T12:07:56.871Z,1.30
2023-04-10T12:10:25.962Z,0.90
2023-04-10T12:12:53.305Z,0.60
2023-04-10T12:15:30.157Z,0.60
2023-04-10T12:17:58.040Z,0.50
2023-04-10T12:20:28.091Z,0.60
2023-04-10T12:22:57.529Z,0.60
2023-04-10T12:25:25.007Z,0.77
2023-04-10T12:27:52.643Z,0.70
2023-04-10T12:30:20.126Z,0.50
2023-04-10T12:32:53.853Z,0.60
2023-04-10T12:35:21.515Z,0.60
2023-04-10T12:37:50.217Z,0.75
2023-04-10T12:40:18.236Z,0.55
2023-04-10T12:42:47.376Z,0.68
2023-04-10T12:45:15.513Z,0.40
2023-04-10T12:47:47.241Z,0.68
2023-04-10T12:50:15.826Z,0.52
2023-04-10T12:52:44.217Z,0.50
2023-04-10T12:55:12.873Z,0.80
2023-04-10T12:57:41.607Z,0.60
2023-04-10T13:00:11.250Z,0.55
2023-04-10T13:02:39.438Z,0.80
2023-04-10T13:05:07.666Z,0.75
2023-04-10T13:07:35.323Z,0.60
2023-04-10T13:10:02.926Z,0.40
2023-04-10T13:12:30.694Z,0.50
2023-04-10T13:14:58.149Z,0.63
2023-04-10T13:17:25.997Z,0.60
2023-04-10T13:19:53.813Z,0.63
2023-04-10T13:22:21.582Z,0.60
2023-04-10T13:24:49.085Z,0.50
2023-04-10T13:27:16.541Z,0.60
2023-04-10T13:29:44.167Z,0.90
2023-04-10T13:32:11.675Z,0.43
2023-04-10T13:34:39.050Z,0.70
2023-04-10T13:37:06.559Z,0.73
2023-04-10T13:39:34.202Z,0.70
2023-04-10T13:42:02.308Z,0.70
2023-04-10T13:44:29.906Z,0.50
2023-04-10T13:46:58.402Z,0.50
2023-04-10T13:49:26.060Z,0.60
2023-04-10T13:51:53.558Z,0.60
2023-04-10T13:54:20.983Z,0.60
2023-04-10T13:56:48.406Z,0.60
2023-04-10T13:59:15.848Z,0.60
2023-04-10T14:01:43.256Z,0.60
2023-04-10T14:04:10.882Z,0.70
2023-04-10T14:06:38.443Z,0.60
2023-04-10T14:09:07.210Z,0.60
2023-04-10T14:11:34.647Z,0.50
2023-04-10T14:14:02.205Z,0.60
2023-04-10T14:16:29.857Z,0.70
2023-04-10T14:18:57.500Z,0.60
2023-04-10T14:21:25.058Z,0.70
2023-04-10T14:23:52.492Z,0.60
2023-04-10T14:26:20.014Z,0.70
2023-04-10T14:28:47.527Z,0.70
2023-04-10T14:31:14.920Z,0.60
2023-04-10T14:33:42.357Z,0.70
2023-04-10T14:36:10.091Z,0.50
2023-04-10T14:38:37.570Z,0.70
2023-04-10T14:41:05.034Z,0.60
2023-04-10T14:43:32.487Z,0.57
2023-04-10T14:45:59.970Z,0.60
2023-04-10T14:48:27.484Z,0.60
2023-04-10T14:50:56.783Z,0.50
2023-04-10T14:53:24.556Z,0.60
2023-04-10T14:55:52.005Z,0.50
2023-04-10T14:58:19.401Z,0.67
2023-04-10T15:00:46.863Z,0.70
2023-04-10T15:03:14.317Z,0.80
2023-04-10T15:05:41.812Z,0.70
2023-04-10T15:08:09.332Z,0.70
2023-04-10T15:10:36.813Z,0.60
2023-04-10T15:13:05.326Z,0.50
2023-04-10T15:15:32.701Z,0.40
2023-04-10T15:18:00.299Z,0.73
2023-04-10T15:20:27.808Z,0.60
2023-04-10T15:22:55.144Z,0.80
2023-04-10T15:25:22.523Z,0.60
2023-04-10T15:27:49.846Z,0.68
2023-04-10T15:30:17.847Z,0.50
2023-04-10T15:32:45.371Z,0.60
2023-04-10T15:35:12.879Z,0.73
2023-04-10T15:37:40.291Z,0.60
2023-04-10T15:40:08.126Z,0.50
2023-04-10T15:42:35.814Z,0.70
2023-04-10T15:45:03.613Z,0.67
2023-04-10T15:47:31.259Z,0.60
2023-04-10T15:49:58.968Z,0.67
2023-04-10T15:52:29.506Z,0.70
2023-04-10T15:54:57.863Z,0.70
2023-04-10T15:57:25.402Z,0.80
2023-04-10T15:59:58.484Z,0.80
2023-04-10T16:02:26.621Z,0.60
2023-04-10T16:04:54.311Z,0.60
2023-04-10T16:07:21.956Z,0.60
2023-04-10T16:09:49.322Z,0.63
2023-04-10T16:12:16.922Z,0.70
2023-04-10T16:14:44.269Z,0.57
2023-04-10T16:17:11.725Z,0.67
2023-04-10T16:19:39.030Z,0.50
2023-04-10T16:22:06.558Z,0.60
2023-04-10T16:24:34.011Z,0.70
2023-04-10T16:27:02.313Z,0.50
2023-04-10T16:29:29.909Z,0.50
2023-04-10T16:31:57.292Z,0.60
2023-04-10T16:34:24.618Z,0.63
2023-04-10T16:36:52.133Z,0.60
2023-04-10T16:39:19.485Z,0.77
2023-04-10T16:41:46.802Z,1.07
2023-04-10T16:44:14.163Z,0.43
2023-04-10T16:46:41.627Z,0.60
2023-04-10T16:49:09.035Z,0.60
2023-04-10T16:51:36.525Z,0.77
2023-04-10T16:54:03.969Z,0.70
2023-04-10T16:56:34.088Z,0.70
2023-04-10T16:59:01.465Z,0.60
2023-04-10T17:01:29.097Z,0.60
2023-04-10T17:03:56.813Z,0.97
2023-04-10T17:06:24.405Z,0.60
2023-04-10T17:08:51.785Z,0.70
2023-04-10T17:11:19.264Z,0.77
2023-04-10T17:13:47.058Z,0.73
2023-04-10T17:16:14.993Z,0.60
2023-04-10T17:18:43.736Z,0.70
2023-04-10T17:21:12.367Z,1.77
2023-04-10T17:23:40.418Z,0.77
2023-04-10T17:26:12.830Z,0.70
2023-04-10T17:28:40.453Z,0.80
2023-04-10T17:31:07.936Z,0.70
2023-04-10T17:33:35.445Z,0.90
2023-04-10T17:36:03.070Z,0.83
2023-04-10T17:38:30.766Z,0.90
2023-04-10T17:40:58.290Z,0.80
2023-04-10T17:43:25.734Z,0.80
2023-04-10T17:45:53.183Z,0.87
2023-04-10T17:48:20.983Z,0.70
2023-04-10T17:50:49.485Z,0.87
2023-04-10T17:53:16.899Z,0.70
2023-04-10T17:55:45.169Z,0.80
2023-04-10T17:58:12.857Z,0.73
2023-04-10T18:00:43.807Z,0.70
2023-04-10T18:03:11.421Z,0.80
2023-04-10T18:05:39.890Z,0.80
2023-04-10T18:08:08.852Z,0.80
2023-04-10T18:10:36.525Z,0.77
2023-04-10T18:13:03.966Z,0.80
2023-04-10T18:15:31.367Z,0.87
2023-04-10T18:17:58.840Z,0.70
2023-04-10T18:20:26.378Z,0.80
2023-04-10T18:22:53.765Z,0.70
2023-04-10T18:25:21.298Z,0.80
2023-04-10T18:28:09.569Z,0.83
2023-04-10T18:30:39.348Z,0.70
2023-04-10T18:33:10.759Z,0.80
2023-04-10T18:35:39.124Z,0.80
2023-04-10T18:38:07.210Z,1.00
2023-04-10T18:40:36.998Z,0.80
2023-04-10T18:43:04.682Z,0.70
2023-04-10T18:45:34.469Z,0.93
2023-04-10T18:48:02.070Z,0.70
2023-04-10T18:50:29.861Z,0.70
2023-04-10T18:52:57.249Z,0.90
2023-04-10T18:55:24.648Z,0.80
2023-04-10T18:57:52.133Z,0.90
2023-04-10T19:00:19.812Z,0.80
2023-04-10T19:02:47.431Z,1.00
2023-04-10T19:05:16.769Z,0.70
2023-04-10T19:07:56.740Z,0.80
2023-04-10T19:10:28.652Z,0.90
2023-04-10T19:12:57.486Z,1.07
2023-04-10T19:15:25.437Z,0.90
2023-04-10T19:17:53.872Z,0.90
2023-04-10T19:20:50.485Z,1.27
2023-04-10T19:23:09.844Z,1.30
2023-04-10T19:25:37.209Z,0.90
2023-04-10T19:28:04.856Z,1.00
2023-04-10T19:30:32.364Z,1.80
2023-04-10T19:32:59.973Z,1.53
2023-04-10T19:35:27.650Z,0.70
2023-04-10T19:37:58.288Z,0.80
2023-04-10T19:40:25.686Z,0.90
2023-04-10T19:42:53.254Z,0.90
2023-04-10T19:45:22.320Z,0.70
2023-04-10T19:47:51.421Z,1.10
2023-04-10T19:50:18.890Z,1.20
2023-04-10T19:52:46.403Z,0.90
2023-04-10T19:55:13.880Z,0.90
2023-04-10T19:57:41.320Z,1.00
2023-04-10T20:00:10.101Z,1.03
2023-04-10T20:02:37.782Z,0.80
2023-04-10T20:05:05.654Z,0.80
2023-04-10T20:07:32.966Z,1.20
2023-04-10T20:10:02.734Z,0.80
2023-04-10T20:12:33.244Z,0.90
2023-04-10T20:15:00.964Z,0.80
2023-04-10T20:17:29.122Z,1.00
2023-04-10T20:19:56.616Z,1.10
2023-04-10T20:22:24.202Z,0.90
2023-04-10T20:24:51.637Z,1.10
2023-04-10T20:27:19.083Z,0.87
2023-04-10T20:29:46.525Z,1.27
2023-04-10T20:32:14.022Z,0.90
2023-04-10T20:34:41.584Z,1.23
2023-04-10T20:37:09.081Z,1.10
2023-04-10T20:39:37.940Z,0.90
2023-04-10T20:42:05.416Z,1.10
2023-04-10T20:44:39.090Z,1.40
2023-04-10T20:47:06.926Z,1.20
2023-04-10T20:49:34.488Z,1.20
2023-04-10T20:52:02.143Z,1.40
2023-04-10T20:54:29.522Z,1.40
2023-04-10T20:57:01.866Z,1.20
2023-04-10T20:59:30.057Z,1.10
2023-04-10T21:01:57.556Z,1.13
2023-04-10T21:04:25.120Z,1.10
2023-04-10T21:06:52.482Z,1.20
2023-04-10T21:09:20.671Z,1.00
2023-04-10T21:11:48.084Z,1.20
2023-04-10T21:14:15.378Z,1.40
2023-04-10T21:16:43.112Z,1.10
2023-04-10T21:19:10.619Z,1.27
2023-04-10T21:21:38.111Z,1.30
2023-04-10T21:24:05.649Z,1.30
2023-04-10T21:26:33.035Z,1.40
2023-04-10T21:29:00.616Z,1.30
2023-04-10T21:31:28.022Z,1.30
2023-04-10T21:33:55.583Z,1.20
2023-04-10T21:36:23.058Z,1.30
2023-04-10T21:38:50.444Z,1.60
2023-04-10T21:41:17.805Z,1.30
2023-04-10T21:43:45.402Z,1.30
2023-04-10T21:46:12.893Z,1.37
2023-04-10T21:48:41.652Z,1.57
2023-04-10T21:51:09.126Z,1.30
2023-04-10T21:53:36.436Z,1.20
2023-04-10T21:56:03.892Z,1.57
2023-04-10T21:58:32.445Z,1.67
2023-04-10T22:01:01.104Z,2.07
2023-04-10T22:03:28.843Z,1.63
2023-04-10T22:05:56.525Z,1.60
2023-04-10T22:08:23.967Z,1.90
2023-04-10T22:10:52.514Z,1.20
2023-04-10T22:13:30.480Z,1.50
2023-04-10T22:16:05.525Z,1.13
2023-04-10T22:18:33.092Z,1.20
2023-04-10T22:21:00.844Z,0.97
2023-04-10T22:23:28.251Z,1.30
2023-04-10T22:25:55.690Z,1.20
2023-04-10T22:28:23.132Z,1.00
2023-04-10T22:30:51.034Z,1.10
2023-04-10T22:33:18.718Z,1.20
2023-04-10T22:35:46.457Z,1.03
2023-04-10T22:38:13.847Z,1.00
2023-04-10T22:40:41.257Z,1.00
2023-04-10T22:43:10.071Z,0.97
2023-04-10T22:45:37.563Z,1.07
2023-04-10T22:48:04.956Z,0.77
2023-04-10T22:50:32.529Z,1.37
2023-04-10T22:52:59.928Z,0.90
2023-04-10T22:55:27.485Z,1.00
2023-04-10T22:57:54.889Z,1.00
2023-04-10T23:00:22.513Z,0.80
2023-04-10T23:02:50.233Z,0.90
2023-04-10T23:05:17.848Z,1.10
2023-04-10T23:07:45.363Z,1.10
2023-04-10T23:10:12.761Z,0.90
2023-04-10T23:12:40.170Z,1.00
2023-04-10T23:15:09.226Z,0.90
2023-04-10T23:17:36.862Z,0.80
2023-04-10T23:20:04.414Z,1.30
2023-04-10T23:22:31.802Z,1.40
2023-04-10T23:24:59.239Z,1.10
2023-04-10T23:27:26.692Z,1.47
2023-04-10T23:29:54.052Z,1.20
2023-04-10T23:32:21.368Z,1.20
2023-04-10T23:34:48.730Z,1.07
2023-04-10T23:37:16.213Z,1.17
2023-04-10T23:39:43.565Z,1.20
2023-04-10T23:42:10.947Z,1.00
2023-04-10T23:44:40.808Z,0.80
2023-04-10T23:47:08.365Z,0.87
2023-04-10T23:49:35.817Z,0.90
2023-04-10T23:52:03.349Z,1.03
2023-04-10T23:54:30.730Z,1.10
2023-04-10T23:56:58.176Z,1.20
2023-04-10T23:59:25.641Z,0.97
